CPX413 Details

Departure: Tulsa International Airport (KTUL)
Arrival: Miami International Airport (KMIA)
Route: MAYJI FSM LIT SQS MEI ACORI BULZI NICKI Q81 ENDEW JUULI SSCOT5


Current Weather Information
KTUL 190653Z 00000KT 10SM CLR 08/01 A3024 RMK AO2 SLP239 T00780006
KMIA 190653Z 35008KT 8SM OVC011 21/19 A3000 RMK AO2 SLP160 T02110194